Time;durP1;ratioP1;P1;durP2;ratioP2;P2;SDS_P1;SDS_P2;PMS_P1;PMS_P2;Temp;Humidity;BMP_temperature;BMP_pressure;BME280_temperature;BME280_humidity;BME280_pressure;Samples;Min_cycle;Max_cycle;Signal;HPM_P1;HPM_P2
2022/09/28 00:01:20;;;;;;;14.90;8.70;;;30.50;90.50;;;;;;5127930;28;20028;-56
2022/09/28 00:03:49;;;;;;;11.48;5.90;;;30.50;90.60;;;;;;5127838;28;20042;-55
2022/09/28 00:06:19;;;;;;;7.10;4.50;;;30.50;90.70;;;;;;5127062;28;20038;-57
2022/09/28 00:08:46;;;;;;;13.18;7.63;;;30.50;90.70;;;;;;5128000;28;20015;-58
2022/09/28 00:11:17;;;;;;;7.18;4.35;;;30.40;90.80;;;;;;5109501;28;20032;-56
2022/09/28 00:13:47;;;;;;;17.38;8.65;;;30.40;90.80;;;;;;5109189;28;20051;-57
2022/09/28 00:16:16;;;;;;;16.67;7.72;;;30.40;90.80;;;;;;5127530;28;20031;-54
2022/09/28 00:18:43;;;;;;;12.80;4.10;;;30.40;90.80;;;;;;5127462;28;20019;-59
2022/09/28 00:21:13;;;;;;;16.15;4.05;;;30.40;90.80;;;;;;5127279;28;20036;-56
2022/09/28 00:26:28;;;;;;;14.73;3.42;;;30.40;90.80;;;;;;5127262;28;20339;-53
2022/09/28 00:28:58;;;;;;;17.70;4.28;;;30.30;90.80;;;;;;5127062;28;20020;-51
2022/09/28 00:31:28;;;;;;;11.77;3.83;;;30.30;90.80;;;;;;5127048;28;20127;-55
2022/09/28 00:33:59;;;;;;;192.13;10.75;;;30.30;90.80;;;;;;5126887;28;20036;-52
2022/09/28 00:36:29;;;;;;;14.73;3.75;;;30.30;90.90;;;;;;5127275;28;20211;-54
2022/09/28 00:38:56;;;;;;;7.00;2.80;;;30.30;91.00;;;;;;5117928;28;20048;-58
2022/09/28 00:41:24;;;;;;;7.15;2.70;;;30.30;91.10;;;;;;5122713;28;20373;-58
2022/09/28 00:43:51;;;;;;;7.10;2.40;;;30.20;91.20;;;;;;5114502;28;20031;-58
2022/09/28 00:46:33;;;;;;;5.05;2.38;;;30.20;91.30;;;;;;5115649;28;20047;-57
2022/09/28 00:49:10;;;;;;;7.10;2.67;;;30.20;91.50;;;;;;5118826;28;20035;-57
2022/09/28 00:51:48;;;;;;;9.75;2.58;;;30.10;91.40;;;;;;5116926;27;20031;-60
2022/09/28 00:54:16;;;;;;;6.55;2.22;;;30.20;91.30;;;;;;5121024;28;20055;-58
2022/09/28 00:56:45;;;;;;;4.32;2.03;;;30.10;91.30;;;;;;5128512;27;20248;-57
2022/09/28 00:59:13;;;;;;;9.18;3.00;;;30.10;91.20;;;;;;5147193;27;20086;-58
2022/09/28 01:01:43;;;;;;;4.72;2.33;;;30.10;91.20;;;;;;5132800;27;20028;-56
2022/09/28 01:04:12;;;;;;;6.38;2.90;;;30.00;91.20;;;;;;5102881;28;20051;-56
2022/09/28 01:06:39;;;;;;;6.10;2.90;;;30.10;91.50;;;;;;5089851;28;20055;-58
2022/09/28 01:09:14;;;;;;;8.10;2.95;;;30.00;91.20;;;;;;5114320;28;20310;-58
2022/09/28 01:11:42;;;;;;;7.53;2.60;;;30.00;91.20;;;;;;5118679;28;20053;-56
2022/09/28 01:14:13;;;;;;;6.43;2.78;;;30.00;91.10;;;;;;5126603;28;20055;-59
2022/09/28 01:16:52;;;;;;;10.30;2.75;;;30.00;91.20;;;;;;5124886;27;20039;-58
2022/09/28 01:19:45;;;;;;;6.82;2.20;;;29.90;91.30;;;;;;5125477;28;20036;-56
2022/09/28 01:22:29;;;;;;;;;;;29.90;91.20;;;;;;5089290;27;20044;-56
2022/09/28 01:25:33;;;;;;;11.77;2.85;;;29.90;91.20;;;;;;5117585;28;19904;-59
2022/09/28 01:28:07;;;;;;;12.18;3.10;;;29.80;91.10;;;;;;5121928;27;20051;-57
2022/09/28 01:31:10;;;;;;;10.65;2.58;;;29.80;91.00;;;;;;5109670;28;20083;-57
2022/09/28 01:33:42;;;;;;;12.05;2.50;;;29.80;91.10;;;;;;5098965;28;20298;-58
2022/09/28 01:36:24;;;;;;;8.65;2.70;;;29.80;91.10;;;;;;5125998;28;20311;-56
2022/09/28 01:39:11;;;;;;;;;;;29.80;91.10;;;;;;5126153;28;20270;-60
2022/09/28 01:41:40;;;;;;;5.25;1.70;;;29.80;91.10;;;;;;5115935;28;20104;-59
2022/09/28 01:44:13;;;;;;;7.28;2.08;;;29.80;91.00;;;;;;5105183;28;20051;-59
2022/09/28 01:46:43;;;;;;;7.50;2.03;;;29.70;91.00;;;;;;5105377;28;20035;-58
2022/09/28 01:49:48;;;;;;;54.88;3.67;;;29.70;91.10;;;;;;5111139;28;20072;-56
2022/09/28 01:52:26;;;;;;;14.05;2.63;;;29.70;91.20;;;;;;5108263;28;20103;-56
2022/09/28 01:55:10;;;;;;;6.05;1.90;;;29.70;91.30;;;;;;5125533;28;20299;-56
2022/09/28 01:57:41;;;;;;;6.43;2.25;;;29.70;91.10;;;;;;5125809;28;20246;-58
2022/09/28 02:00:11;;;;;;;18.10;2.75;;;29.70;91.10;;;;;;5124609;28;20073;-57
2022/09/28 02:02:59;;;;;;;37.22;5.38;;;29.60;91.10;;;;;;5124725;28;20019;-58
2022/09/28 02:05:26;;;;;;;138.95;13.38;;;29.60;91.10;;;;;;5107377;28;20031;-57
2022/09/28 02:08:02;;;;;;;149.98;14.05;;;29.60;91.20;;;;;;5125589;28;20032;-59
2022/09/28 02:10:55;;;;;;;101.97;10.23;;;29.60;91.30;;;;;;5125853;28;20045;-60
2022/09/28 02:13:47;;;;;;;111.47;10.52;;;29.50;91.40;;;;;;5114729;28;20266;-59
2022/09/28 02:16:19;;;;;;;49.30;5.63;;;29.50;91.60;;;;;;5119371;28;20260;-58
2022/09/28 02:18:48;;;;;;;52.95;5.65;;;29.50;91.60;;;;;;5125183;28;20267;-58
2022/09/28 02:21:26;;;;;;;57.28;6.72;;;29.40;91.60;;;;;;5125096;28;20016;-59
2022/09/28 02:24:24;;;;;;;48.38;6.05;;;29.40;91.80;;;;;;5107376;28;20032;-58
2022/09/28 02:26:54;;;;;;;24.48;4.78;;;29.50;91.90;;;;;;5106425;28;20063;-59
2022/09/28 02:29:24;;;;;;;32.00;6.00;;;29.40;91.90;;;;;;5107314;28;20028;-59
2022/09/28 02:31:51;;;;;;;18.02;5.38;;;29.40;92.00;;;;;;5102650;28;20097;-57
2022/09/28 02:34:18;;;;;;;22.35;4.95;;;29.40;92.10;;;;;;5103029;28;20091;-56
2022/09/28 02:36:46;;;;;;;7.68;3.20;;;29.40;92.20;;;;;;5102885;28;20130;-57
2022/09/28 02:39:17;;;;;;;7.65;2.90;;;29.40;92.10;;;;;;5102672;28;20027;-57
2022/09/28 02:42:08;;;;;;;9.18;2.53;;;29.40;92.00;;;;;;5102795;28;20057;-56
2022/09/28 02:44:53;;;;;;;6.28;2.03;;;29.40;92.00;;;;;;5102623;28;20042;-57
2022/09/28 02:47:43;;;;;;;12.90;2.80;;;29.40;92.00;;;;;;5102501;28;20222;-61
2022/09/28 02:50:28;;;;;;;4.88;2.03;;;29.30;91.90;;;;;;5102684;28;20032;-58
2022/09/28 02:53:17;;;;;;;7.88;2.20;;;29.30;91.90;;;;;;5102562;28;20047;-57
2022/09/28 02:55:52;;;;;;;6.20;2.03;;;29.30;92.00;;;;;;5102332;28;20035;-61
2022/09/28 02:58:48;;;;;;;6.43;1.90;;;29.30;92.10;;;;;;5102684;28;20095;-57
2022/09/28 03:01:35;;;;;;;6.03;2.33;;;29.30;92.10;;;;;;5079658;28;20085;-58
2022/09/28 03:04:28;;;;;;;4.28;1.95;;;29.30;92.10;;;;;;5124621;28;20048;-60
2022/09/28 03:07:16;;;;;;;5.65;2.10;;;29.20;92.00;;;;;;5070047;28;20039;-60
2022/09/28 03:09:50;;;;;;;19.83;2.78;;;29.30;92.00;;;;;;5118207;28;20051;-60
2022/09/28 03:12:19;;;;;;;24.77;3.63;;;29.20;92.00;;;;;;5111902;28;20020;-56
2022/09/28 03:14:46;;;;;;;13.60;2.97;;;29.20;92.00;;;;;;5104073;28;20040;-59
2022/09/28 03:17:13;;;;;;;14.88;2.20;;;29.20;92.00;;;;;;5104141;28;20032;-56
2022/09/28 03:19:39;;;;;;;6.00;2.10;;;29.20;92.00;;;;;;5104175;28;20028;-59
2022/09/28 03:22:07;;;;;;;6.70;2.03;;;29.30;92.00;;;;;;5103813;28;20035;-57
2022/09/28 03:24:34;;;;;;;19.92;2.25;;;29.30;92.10;;;;;;5110140;28;20031;-57
2022/09/28 03:27:00;;;;;;;9.13;3.00;;;29.20;91.90;;;;;;5095738;28;20024;-57
2022/09/28 03:29:30;;;;;;;5.88;2.13;;;29.20;92.30;;;;;;5094961;28;20265;-60
2022/09/28 03:31:56;;;;;;;10.98;2.22;;;29.20;92.20;;;;;;5103706;28;20051;-57
2022/09/28 03:34:23;;;;;;;7.18;2.08;;;29.20;92.30;;;;;;5104160;28;20077;-57
2022/09/28 03:36:49;;;;;;;4.30;2.20;;;29.20;92.20;;;;;;5103784;28;20278;-60
2022/09/28 03:39:16;;;;;;;5.93;2.00;;;29.20;92.30;;;;;;5104047;28;20335;-61
2022/09/28 03:41:42;;;;;;;3.38;1.95;;;29.30;92.40;;;;;;5103949;28;20309;-58
2022/09/28 03:44:10;;;;;;;6.13;2.00;;;29.30;92.30;;;;;;5103862;28;20032;-60
2022/09/28 03:46:37;;;;;;;8.43;2.08;;;29.30;92.30;;;;;;5103800;28;20051;-58
2022/09/28 03:49:03;;;;;;;7.05;1.92;;;29.30;92.40;;;;;;5103972;28;20119;-58
2022/09/28 03:51:30;;;;;;;4.25;1.90;;;29.30;92.40;;;;;;5085638;28;20299;-55
2022/09/28 03:53:57;;;;;;;5.70;2.10;;;29.20;92.30;;;;;;5103689;28;20062;-59
2022/09/28 03:56:23;;;;;;;5.40;2.08;;;29.30;92.40;;;;;;5103766;28;20344;-61
2022/09/28 03:58:50;;;;;;;2.83;1.70;;;29.30;92.30;;;;;;5103824;28;20331;-55
2022/09/28 04:01:17;;;;;;;6.80;2.30;;;29.30;92.40;;;;;;5103537;28;20049;-58
2022/09/28 04:03:44;;;;;;;4.93;1.90;;;29.30;92.40;;;;;;5085565;28;20292;-60
2022/09/28 04:06:11;;;;;;;5.30;2.05;;;29.30;92.40;;;;;;5103658;28;20091;-58
2022/09/28 04:08:38;;;;;;;4.57;2.00;;;29.30;92.50;;;;;;5103595;28;20032;-57
2022/09/28 04:11:05;;;;;;;4.65;1.90;;;29.30;92.50;;;;;;5103579;28;20020;-60
2022/09/28 04:13:31;;;;;;;7.60;2.00;;;29.30;92.50;;;;;;5118077;28;20267;-60
2022/09/28 04:16:00;;;;;;;7.93;2.00;;;29.30;92.50;;;;;;5115234;28;20027;-56
2022/09/28 04:18:27;;;;;;;7.82;2.22;;;29.30;92.50;;;;;;5103489;28;20030;-57
2022/09/28 04:21:06;;;;;;;220.10;13.45;;;29.30;92.50;;;;;;5085298;28;20035;-56
2022/09/28 04:23:38;;;;;;;14.73;2.45;;;29.20;92.40;;;;;;5106538;28;20354;-59
2022/09/28 04:26:07;;;;;;;9.15;2.08;;;29.20;92.30;;;;;;5107077;28;20213;-57
2022/09/28 04:31:23;;;;;;;7.07;1.95;;;29.20;92.20;;;;;;5106970;28;20059;-57
2022/09/28 04:33:50;;;;;;;8.82;2.00;;;29.20;92.20;;;;;;5106675;28;20251;-54
2022/09/28 04:36:18;;;;;;;5.22;2.30;;;29.20;92.20;;;;;;5107056;28;20032;-56
2022/09/28 04:38:45;;;;;;;34.90;3.40;;;29.20;92.20;;;;;;5106914;28;20019;-56
2022/09/28 04:41:12;;;;;;;18.05;3.33;;;29.20;92.20;;;;;;5107870;28;20267;-57
2022/09/28 04:43:38;;;;;;;30.70;4.25;;;29.10;92.20;;;;;;5123139;28;20027;-57
2022/09/28 04:46:05;;;;;;;41.55;4.18;;;29.10;92.10;;;;;;5125934;28;20134;-55
2022/09/28 04:48:31;;;;;;;8.95;2.30;;;29.10;92.00;;;;;;5126811;28;20077;-59
2022/09/28 04:50:59;;;;;;;8.60;2.25;;;29.10;92.00;;;;;;5127158;28;20034;-56
2022/09/28 04:53:28;;;;;;;10.65;1.77;;;29.10;91.90;;;;;;5123109;28;20031;-59
2022/09/28 04:55:56;;;;;;;6.90;1.80;;;29.00;91.70;;;;;;5117379;28;20039;-55
2022/09/28 04:58:22;;;;;;;6.93;2.00;;;29.10;91.60;;;;;;5126829;28;20028;-58
2022/09/28 05:00:50;;;;;;;7.90;2.03;;;29.00;91.40;;;;;;5127396;28;20085;-58
2022/09/28 05:03:20;;;;;;;10.95;2.00;;;29.00;91.30;;;;;;5126596;28;20034;-56
2022/09/28 05:05:48;;;;;;;5.55;1.75;;;29.00;91.20;;;;;;5127253;28;20034;-55
2022/09/28 05:08:15;;;;;;;8.32;1.75;;;29.00;91.10;;;;;;5126593;28;20043;-54
2022/09/28 05:10:42;;;;;;;16.73;2.50;;;28.90;91.00;;;;;;5127032;28;20046;-55
2022/09/28 05:13:10;;;;;;;7.35;1.85;;;28.80;90.90;;;;;;5126429;28;20039;-59
2022/09/28 05:16:02;;;;;;;10.05;1.85;;;28.80;90.90;;;;;;5127030;28;20043;-53
2022/09/28 05:18:29;;;;;;;4.85;1.77;;;28.80;90.70;;;;;;5111008;28;20043;-57
2022/09/28 05:20:56;;;;;;;3.80;1.50;;;28.80;90.40;;;;;;5126221;28;20032;-54
2022/09/28 05:23:22;;;;;;;20.42;2.70;;;28.70;90.30;;;;;;5126343;28;20031;-55
2022/09/28 05:25:49;;;;;;;3.38;1.20;;;28.70;90.10;;;;;;5126828;28;20189;-63
2022/09/28 05:28:24;;;;;;;6.72;1.20;;;28.80;89.40;;;;;;5126257;28;20212;-55
2022/09/28 05:30:51;;;;;;;3.17;1.20;;;28.70;88.90;;;;;;5126442;28;20160;-59
2022/09/28 05:33:17;;;;;;;15.18;1.40;;;28.70;88.70;;;;;;5125170;28;20030;-55
2022/09/28 05:35:44;;;;;;;4.22;0.90;;;28.70;87.20;;;;;;5125622;28;20034;-55
2022/09/28 05:38:10;;;;;;;4.72;0.90;;;28.70;86.90;;;;;;5126020;28;20019;-55
2022/09/28 05:40:37;;;;;;;5.30;0.98;;;28.70;86.80;;;;;;5126440;28;20077;-54
2022/09/28 05:43:03;;;;;;;5.40;1.10;;;28.70;85.60;;;;;;5125871;28;20032;-55
2022/09/28 05:45:30;;;;;;;2.97;0.80;;;28.60;85.90;;;;;;5126427;28;20032;-55
2022/09/28 05:47:56;;;;;;;3.70;0.70;;;28.60;85.10;;;;;;5125810;28;20032;-56
2022/09/28 05:50:23;;;;;;;2.78;0.80;;;28.60;85.70;;;;;;5126108;28;20061;-58
2022/09/28 05:53:04;;;;;;;1.50;0.70;;;28.60;85.70;;;;;;5125839;28;20107;-59
2022/09/28 05:55:32;;;;;;;2.80;0.60;;;28.70;85.60;;;;;;5126238;28;20027;-57
2022/09/28 05:57:59;;;;;;;3.42;0.80;;;28.70;85.60;;;;;;5125697;28;20035;-57
2022/09/28 06:00:28;;;;;;;2.03;0.88;;;28.70;85.50;;;;;;5125970;28;20041;-60
2022/09/28 06:03:03;;;;;;;3.03;0.90;;;28.70;85.30;;;;;;5125624;28;20355;-59
2022/09/28 06:05:31;;;;;;;1.02;0.63;;;28.60;85.40;;;;;;5125872;28;20061;-55
2022/09/28 06:07:58;;;;;;;2.35;0.60;;;28.70;85.40;;;;;;5125435;28;20028;-55
2022/09/28 06:10:27;;;;;;;8.90;0.90;;;28.70;85.50;;;;;;5125781;28;20043;-57
2022/09/28 06:12:57;;;;;;;3.45;1.20;;;28.70;85.20;;;;;;5125317;28;20069;-54
2022/09/28 06:15:27;;;;;;;5.85;1.00;;;28.70;85.20;;;;;;5125831;28;20012;-55
2022/09/28 06:17:58;;;;;;;3.40;0.82;;;28.70;84.50;;;;;;5125058;28;20197;-63
2022/09/28 06:20:26;;;;;;;1.25;0.60;;;28.70;84.70;;;;;;5125592;28;20177;-54
2022/09/28 06:22:53;;;;;;;2.67;0.90;;;28.70;84.50;;;;;;5125182;28;20063;-59
2022/09/28 06:25:21;;;;;;;2.63;0.70;;;28.70;84.50;;;;;;5125365;28;20034;-55
2022/09/28 06:28:16;;;;;;;3.95;0.80;;;28.60;84.60;;;;;;5125361;28;20023;-56
2022/09/28 06:30:43;;;;;;;4.65;0.98;;;28.70;84.80;;;;;;5125153;28;20130;-55
2022/09/28 06:33:12;;;;;;;1.75;0.70;;;28.60;84.70;;;;;;5124919;28;20032;-56
2022/09/28 06:35:39;;;;;;;2.25;0.50;;;28.60;84.90;;;;;;5125407;28;20027;-57
2022/09/28 06:38:06;;;;;;;7.00;0.90;;;28.60;84.70;;;;;;5124869;28;20095;-57
2022/09/28 06:40:33;;;;;;;21.27;1.27;;;28.60;84.80;;;;;;5125286;28;20086;-58
2022/09/28 06:43:05;;;;;;;23.05;1.50;;;28.60;85.00;;;;;;5124995;28;20324;-57
2022/09/28 06:45:31;;;;;;;;;;;28.60;85.20;;;;;;5125293;28;20024;-57
2022/09/28 06:48:02;;;;;;;7.28;1.00;;;28.50;85.10;;;;;;5124882;28;19949;-57
2022/09/28 06:50:38;;;;;;;7.38;0.88;;;28.50;85.40;;;;;;5125013;28;20045;-56
2022/09/28 06:53:08;;;;;;;6.15;0.90;;;28.50;85.80;;;;;;5124767;28;20059;-57
2022/09/28 06:55:37;;;;;;;5.43;1.02;;;28.50;86.10;;;;;;5124884;28;20027;-55
2022/09/28 06:58:11;;;;;;;3.63;0.98;;;28.50;86.30;;;;;;5124594;28;20016;-57
2022/09/28 07:00:38;;;;;;;6.03;1.05;;;28.50;86.40;;;;;;5125018;28;20096;-55
2022/09/28 07:03:07;;;;;;;8.60;1.00;;;28.50;86.70;;;;;;5124342;28;20059;-56
2022/09/28 07:05:35;;;;;;;3.97;0.70;;;28.50;86.90;;;;;;5124987;28;20031;-55
2022/09/28 07:08:05;;;;;;;3.67;0.73;;;28.50;86.90;;;;;;5124566;28;20027;-57
2022/09/28 07:10:33;;;;;;;7.75;1.17;;;28.50;87.10;;;;;;5124820;28;20051;-55
2022/09/28 07:13:02;;;;;;;2.45;0.80;;;28.40;86.60;;;;;;5124367;28;20066;-59
2022/09/28 07:15:30;;;;;;;4.55;1.02;;;28.40;86.20;;;;;;5124800;28;20094;-56
2022/09/28 07:18:01;;;;;;;5.43;0.90;;;28.30;85.80;;;;;;5124292;28;20087;-56
2022/09/28 07:20:30;;;;;;;8.68;1.10;;;28.20;86.30;;;;;;5124238;28;20050;-55
2022/09/28 07:22:58;;;;;;;3.95;0.90;;;28.20;86.90;;;;;;5124342;28;20034;-55
2022/09/28 07:25:28;;;;;;;1.17;0.80;;;28.10;87.40;;;;;;5124682;28;20047;-55
2022/09/28 07:28:04;;;;;;;2.28;0.98;;;28.10;87.80;;;;;;5124330;28;20231;-56
2022/09/28 07:30:34;;;;;;;2.25;0.70;;;28.00;88.00;;;;;;5124494;28;20113;-55
2022/09/28 07:33:04;;;;;;;2.17;0.70;;;28.00;88.00;;;;;;5124374;28;20227;-57
2022/09/28 07:35:33;;;;;;;2.45;0.60;;;27.90;87.60;;;;;;5124598;28;20023;-59
2022/09/28 07:38:04;;;;;;;2.80;0.90;;;27.90;87.50;;;;;;5124023;28;20100;-56
2022/09/28 07:43:20;;;;;;;3.63;0.77;;;27.90;87.40;;;;;;5124020;28;20042;-59
2022/09/28 07:45:51;;;;;;;2.00;0.50;;;27.90;87.20;;;;;;5124721;28;20023;-60
2022/09/28 07:48:19;;;;;;;1.42;0.40;;;27.90;87.00;;;;;;5124020;28;20200;-60
2022/09/28 07:50:50;;;;;;;1.77;0.43;;;27.90;87.00;;;;;;5124384;28;20031;-57
2022/09/28 07:53:21;;;;;;;0.75;0.32;;;27.90;87.20;;;;;;5124023;28;20098;-56
2022/09/28 07:55:52;;;;;;;3.17;0.57;;;27.90;87.70;;;;;;5124294;28;20208;-55
2022/09/28 07:58:19;;;;;;;4.80;0.55;;;27.80;87.90;;;;;;5127143;28;20027;-55
2022/09/28 08:00:47;;;;;;;1.98;0.40;;;27.60;88.50;;;;;;5128439;28;20292;-57
2022/09/28 08:03:18;;;;;;;6.43;0.70;;;27.60;88.90;;;;;;5127842;28;20085;-55
2022/09/28 08:05:46;;;;;;;9.00;0.85;;;27.50;89.00;;;;;;5127775;28;20308;-59
2022/09/28 08:08:13;;;;;;;4.53;0.50;;;27.40;89.40;;;;;;5127711;28;20073;-57
2022/09/28 08:10:42;;;;;;;1.35;0.30;;;27.40;89.50;;;;;;5128093;28;20099;-55
2022/09/28 08:13:09;;;;;;;2.25;0.28;;;27.40;89.70;;;;;;5127631;28;20030;-57
2022/09/28 08:15:38;;;;;;;3.78;0.55;;;27.40;89.70;;;;;;5128323;28;20039;-61
2022/09/28 08:18:05;;;;;;;8.90;0.80;;;27.40;89.70;;;;;;5127799;28;20361;-58
2022/09/28 08:23:19;;;;;;;1.10;0.22;;;27.40;89.70;;;;;;5127613;28;20072;-54
2022/09/28 08:25:52;;;;;;;1.50;0.20;;;27.40;89.60;;;;;;5127998;28;20319;-53
2022/09/28 08:28:21;;;;;;;1.48;0.20;;;27.40;89.40;;;;;;5127449;28;20310;-54
2022/09/28 08:30:49;;;;;;;3.35;0.50;;;27.40;89.50;;;;;;5127628;28;20090;-55
2022/09/28 08:33:17;;;;;;;3.70;1.00;;;27.40;89.50;;;;;;5127499;28;20323;-55
2022/09/28 08:35:47;;;;;;;3.40;0.43;;;27.30;89.70;;;;;;5127776;28;20203;-56
2022/09/28 08:38:14;;;;;;;0.80;0.28;;;27.30;89.80;;;;;;5127279;28;20020;-59
2022/09/28 08:40:57;;;;;;;2.13;0.20;;;27.20;89.50;;;;;;5127540;28;20111;-56
2022/09/28 08:43:51;;;;;;;0.63;0.25;;;27.20;89.90;;;;;;5127195;28;20020;-57
2022/09/28 08:46:22;;;;;;;3.80;0.70;;;27.20;89.90;;;;;;5126728;28;20050;-54
2022/09/28 08:48:57;;;;;;;3.93;0.73;;;27.10;90.10;;;;;;5127250;28;20345;-55
2022/09/28 08:51:29;;;;;;;3.60;0.95;;;27.10;90.30;;;;;;5126910;28;20284;-58
2022/09/28 08:54:04;;;;;;;2.20;0.68;;;27.10;90.40;;;;;;5126921;28;20086;-57
2022/09/28 08:56:34;;;;;;;3.67;0.50;;;27.00;90.40;;;;;;5126873;28;20379;-53
2022/09/28 08:59:08;;;;;;;4.47;0.80;;;27.00;90.40;;;;;;5126855;28;20238;-56
2022/09/28 09:01:39;;;;;;;5.47;0.73;;;27.00;90.50;;;;;;5126764;28;20031;-55
2022/09/28 09:04:07;;;;;;;4.43;0.70;;;27.00;90.60;;;;;;5126770;28;20079;-57
2022/09/28 09:07:16;;;;;;;9.40;0.60;;;27.00;90.50;;;;;;5126647;28;20038;-55
2022/09/28 09:09:55;;;;;;;3.25;0.50;;;27.00;90.40;;;;;;5126627;28;20330;-57
2022/09/28 09:12:46;;;;;;;12.57;1.65;;;27.00;90.20;;;;;;5126501;28;20035;-60
2022/09/28 09:15:49;;;;;;;13.15;1.50;;;27.00;90.30;;;;;;5127031;28;20176;-58
2022/09/28 09:18:25;;;;;;;;;;;27.00;90.40;;;;;;5126951;28;20103;-55
2022/09/28 09:21:01;;;;;;;29.58;2.55;;;26.90;90.50;;;;;;5126925;28;19903;-55
2022/09/28 09:24:08;;;;;;;45.15;5.20;;;27.00;90.60;;;;;;5126485;28;20220;-57
2022/09/28 09:26:38;;;;;;;27.17;2.53;;;26.90;90.80;;;;;;5024057;28;20053;-55
2022/09/28 09:29:07;;;;;;;14.55;1.85;;;26.90;90.80;;;;;;5023902;28;20053;-55
2022/09/28 09:32:01;;;;;;;12.32;1.38;;;26.90;90.80;;;;;;5075391;28;20102;-57
2022/09/28 09:35:12;;;;;;;13.40;1.48;;;27.00;90.90;;;;;;5126210;28;20299;-56
2022/09/28 09:38:12;;;;;;;10.95;1.27;;;26.90;90.80;;;;;;5126266;28;20304;-58
2022/09/28 09:40:58;;;;;;;5.28;0.98;;;26.90;90.90;;;;;;5126609;28;20299;-55
2022/09/28 09:43:57;;;;;;;5.15;1.00;;;26.90;90.90;;;;;;5125950;28;20023;-56
2022/09/28 09:46:38;;;;;;;4.82;1.00;;;26.90;91.00;;;;;;5125752;28;20084;-54
2022/09/28 09:49:10;;;;;;;6.70;1.17;;;26.90;90.90;;;;;;5125775;28;20316;-54
2022/09/28 09:52:00;;;;;;;4.18;0.90;;;26.80;91.10;;;;;;5125680;28;20039;-57
2022/09/28 09:54:33;;;;;;;5.85;1.17;;;26.80;91.10;;;;;;5125923;28;20178;-56
2022/09/28 09:57:04;;;;;;;4.30;1.00;;;26.80;91.10;;;;;;5125598;28;20103;-58
2022/09/28 09:59:36;;;;;;;7.85;1.08;;;26.80;91.20;;;;;;5125859;28;20022;-60
2022/09/28 10:02:14;;;;;;;3.87;0.77;;;26.80;91.00;;;;;;5125390;28;20032;-55
2022/09/28 10:04:45;;;;;;;5.97;0.80;;;26.90;90.90;;;;;;5125861;28;20215;-55
2022/09/28 10:07:30;;;;;;;4.63;1.10;;;26.90;91.00;;;;;;5125419;28;20035;-55
2022/09/28 10:09:59;;;;;;;2.53;0.70;;;26.80;91.00;;;;;;5125745;28;20071;-57
2022/09/28 10:12:26;;;;;;;3.13;0.60;;;26.80;91.00;;;;;;5125434;28;20111;-57
2022/09/28 10:14:54;;;;;;;3.85;0.82;;;26.80;91.00;;;;;;5125519;28;20027;-55
2022/09/28 10:17:25;;;;;;;3.35;0.93;;;26.80;91.00;;;;;;5125351;28;20024;-53
2022/09/28 10:19:54;;;;;;;3.72;0.85;;;26.70;91.10;;;;;;5124704;28;20087;-55
2022/09/28 10:22:23;;;;;;;;;;;26.70;91.10;;;;;;5125237;28;20347;-56
2022/09/28 10:24:51;;;;;;;;;;;26.70;91.10;;;;;;5125453;28;20172;-60
2022/09/28 10:27:22;;;;;;;;;;;26.70;91.10;;;;;;5124910;28;19903;-55
2022/09/28 10:29:51;;;;;;;;;;;26.70;91.10;;;;;;5125661;28;19930;-55
2022/09/28 10:32:19;;;;;;;;;;;26.70;91.10;;;;;;5124584;28;24094;-58
2022/09/28 10:34:45;;;;;;;;;;;26.60;91.20;;;;;;5124486;28;24074;-56
2022/09/28 10:37:11;;;;;;;;;;;26.60;91.20;;;;;;5125324;28;19966;-56
2022/09/28 10:39:52;;;;;;;;;;;26.50;91.30;;;;;;5125103;28;19903;-56
2022/09/28 10:42:20;;;;;;;;;;;26.50;91.40;;;;;;5124822;28;20253;-59
2022/09/28 10:44:51;;;;;;;;;;;26.40;91.30;;;;;;5125145;28;20057;-54
2022/09/28 10:47:19;;;;;;;;;;;26.50;91.30;;;;;;5124556;28;19939;-57
2022/09/28 10:49:47;;;;;;;;;;;26.50;91.30;;;;;;5124741;28;19908;-55
2022/09/28 10:52:32;;;;;;;;;;;26.50;91.40;;;;;;5124851;28;19914;-54
2022/09/28 10:54:59;;;;;;;;;;;26.50;91.30;;;;;;5118992;28;19978;-55
2022/09/28 10:57:31;;;;;;;;;;;26.40;91.40;;;;;;5124534;28;20170;-55
2022/09/28 10:59:58;;;;;;;;;;;26.40;91.30;;;;;;5124357;28;19904;-54
2022/09/28 11:02:25;;;;;;;;;;;26.40;91.30;;;;;;5124612;28;19908;-55
2022/09/28 11:04:56;;;;;;;;;;;26.40;91.30;;;;;;5125184;28;19958;-57
2022/09/28 11:07:26;;;;;;;;;;;26.40;91.30;;;;;;5124462;28;24069;-54
2022/09/28 11:09:53;;;;;;;;;;;26.40;91.30;;;;;;5124579;28;20168;-53
2022/09/28 11:12:24;;;;;;;;;;;26.40;91.20;;;;;;5124312;28;19904;-57
2022/09/28 11:15:00;;;;;;;;;;;26.40;91.30;;;;;;5123104;28;19914;-55
2022/09/28 11:17:27;;;;;;;;;;;26.30;91.30;;;;;;5122461;28;19943;-56
2022/09/28 11:19:57;;;;;;;;;;;26.40;91.40;;;;;;5125019;28;19944;-60
2022/09/28 11:22:23;;;;;;;;;;;26.30;91.40;;;;;;5144889;28;19911;-57
2022/09/28 11:24:49;;;;;;;;;;;26.30;91.60;;;;;;5125447;28;19915;-56
2022/09/28 11:27:20;;;;;;;;;;;26.30;91.60;;;;;;5124400;28;20147;-54
2022/09/28 11:29:55;;;;;;;;;;;26.30;91.70;;;;;;5124808;28;19904;-55
2022/09/28 11:32:23;;;;;;;;;;;26.30;91.70;;;;;;5126033;28;19922;-55
2022/09/28 11:34:50;;;;;;;;;;;26.30;91.70;;;;;;5128690;28;24059;-54
2022/09/28 11:37:16;;;;;;;;;;;26.30;91.70;;;;;;5128598;28;20180;-55
2022/09/28 11:40:01;;;;;;;;;;;26.30;91.60;;;;;;5128616;28;19974;-54
2022/09/28 11:42:39;;;;;;;;;;;26.30;91.70;;;;;;5128643;28;19908;-58
2022/09/28 11:45:21;;;;;;;;;;;26.30;91.80;;;;;;5128664;28;19949;-55
2022/09/28 11:47:50;;;;;;;;;;;26.30;91.80;;;;;;5128041;28;24083;-54
2022/09/28 11:50:27;;;;;;;;;;;26.30;91.80;;;;;;5125941;28;19969;-47
2022/09/28 11:52:56;;;;;;;;;;;26.30;91.90;;;;;;5128181;28;19908;-56
2022/09/28 11:55:40;;;;;;;;;;;26.30;91.80;;;;;;5128444;28;20130;-55
2022/09/28 11:58:14;;;;;;;;;;;26.20;91.90;;;;;;5127478;28;19971;-56
2022/09/28 12:01:07;;;;;;;1.58;0.20;;;26.20;91.90;;;;;;5126565;28;19903;-57
2022/09/28 12:03:45;;;;;;;1.48;0.25;;;26.10;91.90;;;;;;5125065;28;20028;-52
2022/09/28 12:06:21;;;;;;;5.60;0.47;;;26.10;92.00;;;;;;5105585;28;20038;-55
2022/09/28 12:08:55;;;;;;;2.65;0.40;;;26.10;92.10;;;;;;5105783;28;20043;-55
2022/09/28 12:11:33;;;;;;;4.35;0.95;;;26.10;92.30;;;;;;5105705;28;20103;-58
2022/09/28 12:14:03;;;;;;;5.47;0.60;;;26.10;92.00;;;;;;5105902;28;20055;-55
2022/09/28 12:17:05;;;;;;;1.45;0.50;;;26.20;92.00;;;;;;5106665;28;20073;-57
2022/09/28 12:19:38;;;;;;;2.28;0.40;;;26.20;92.10;;;;;;5025442;28;20037;-54
2022/09/28 12:22:15;;;;;;;10.80;0.75;;;26.10;92.10;;;;;;5094412;28;20365;-57
2022/09/28 12:24:51;;;;;;;6.00;2.78;;;26.10;92.00;;;;;;5107442;28;20047;-58
2022/09/28 12:27:44;;;;;;;7.38;4.53;;;26.10;92.10;;;;;;5106923;28;20262;-56
2022/09/28 12:30:24;;;;;;;5.60;2.92;;;26.20;92.10;;;;;;5107478;28;20091;-57
2022/09/28 12:33:03;;;;;;;4.20;1.88;;;26.20;92.10;;;;;;5123565;28;20067;-58
2022/09/28 12:35:39;;;;;;;5.78;3.10;;;26.20;92.10;;;;;;5126611;28;20043;-61
2022/09/28 12:38:28;;;;;;;10.70;3.95;;;26.20;92.10;;;;;;5127147;28;20189;-58
2022/09/28 12:41:07;;;;;;;4.07;2.13;;;26.20;92.10;;;;;;5123878;28;20028;-57
2022/09/28 12:43:53;;;;;;;4.07;1.85;;;26.10;92.10;;;;;;5116431;28;20068;-54
2022/09/28 12:46:38;;;;;;;2.00;1.20;;;26.10;91.90;;;;;;5123445;28;20042;-58
2022/09/28 12:49:28;;;;;;;1.92;1.00;;;26.10;92.10;;;;;;5127128;28;20207;-56
2022/09/28 12:52:01;;;;;;;1.88;0.70;;;26.10;92.10;;;;;;5119769;28;20339;-57
2022/09/28 12:54:55;;;;;;;1.70;0.73;;;26.10;92.10;;;;;;5123931;28;20055;-61
2022/09/28 12:57:30;;;;;;;3.10;0.40;;;26.10;92.20;;;;;;5126867;28;20023;-58
2022/09/28 13:00:21;;;;;;;3.33;0.50;;;26.20;92.20;;;;;;5127050;28;20030;-55
2022/09/28 13:03:09;;;;;;;0.98;0.32;;;26.20;92.10;;;;;;5126826;28;20027;-57
2022/09/28 13:06:29;;;;;;;2.17;0.40;;;26.20;92.00;;;;;;5126722;28;20068;-54
2022/09/28 13:09:12;;;;;;;1.27;0.30;;;26.20;91.90;;;;;;5024382;28;20033;-55
2022/09/28 13:12:03;;;;;;;1.05;0.30;;;26.20;92.00;;;;;;5024184;28;20092;-56
2022/09/28 13:14:32;;;;;;;2.63;0.40;;;26.20;92.10;;;;;;5098280;28;20380;-54
2022/09/28 13:17:11;;;;;;;0.50;0.10;;;26.20;92.30;;;;;;5126572;28;20036;-54
2022/09/28 13:19:57;;;;;;;75.93;4.30;;;26.20;92.30;;;;;;5126435;28;20380;-55
2022/09/28 13:22:50;;;;;;;5.10;0.40;;;26.30;92.20;;;;;;5126480;28;20108;-55
2022/09/28 13:25:20;;;;;;;2.90;0.38;;;26.30;92.00;;;;;;5079152;28;20040;-59
2022/09/28 13:28:07;;;;;;;2.60;0.40;;;26.30;92.20;;;;;;5125023;28;20098;-55
2022/09/28 13:30:38;;;;;;;3.83;0.30;;;26.30;92.10;;;;;;5124456;28;20054;-57
2022/09/28 13:33:07;;;;;;;1.90;0.40;;;26.30;92.00;;;;;;5123017;28;20040;-56
2022/09/28 13:35:33;;;;;;;2.08;0.32;;;26.40;92.00;;;;;;5117620;28;20054;-54
2022/09/28 13:38:28;;;;;;;2.63;0.30;;;26.40;91.90;;;;;;5122086;28;20035;-55
2022/09/28 13:41:03;;;;;;;0.88;0.30;;;26.50;91.80;;;;;;5087412;28;20040;-56